createdAt,value
2023-09-24T00:00:15.896Z,20.3
2023-09-24T00:05:17.821Z,20.3
2023-09-24T00:10:14.067Z,20.3
2023-09-24T00:15:18.899Z,20.3
2023-09-24T00:20:14.062Z,20.3
2023-09-24T00:25:13.992Z,20.3
2023-09-24T00:30:16.703Z,20.2
2023-09-24T00:35:24.607Z,20.2
2023-09-24T00:40:18.870Z,20.2
2023-09-24T00:45:24.409Z,20.2
2023-09-24T00:50:14.458Z,20.2
2023-09-24T00:55:18.773Z,20.1
2023-09-24T01:00:18.036Z,20.1
2023-09-24T01:05:16.095Z,20.1
2023-09-24T01:10:18.296Z,20.1
2023-09-24T01:15:18.114Z,20.1
2023-09-24T01:20:14.372Z,20.1
2023-09-24T01:25:14.745Z,20.1
2023-09-24T01:30:14.397Z,20.1
2023-09-24T01:35:14.428Z,20.1
2023-09-24T01:40:20.360Z,20
2023-09-24T01:45:24.649Z,20
2023-09-24T01:50:14.465Z,20
2023-09-24T01:55:16.914Z,20
2023-09-24T02:00:13.952Z,20
2023-09-24T02:05:16.007Z,20
2023-09-24T02:10:16.142Z,19.9
2023-09-24T02:15:18.570Z,19.9
2023-09-24T02:20:18.601Z,19.9
2023-09-24T02:25:18.799Z,19.9
2023-09-24T02:30:16.251Z,19.9
2023-09-24T02:35:14.871Z,19.9
2023-09-24T02:40:15.708Z,19.8
2023-09-24T02:45:14.065Z,19.8
2023-09-24T02:50:18.348Z,19.8
2023-09-24T02:55:14.365Z,19.8
2023-09-24T03:00:14.954Z,19.8
2023-09-24T03:05:20.122Z,19.8
2023-09-24T03:10:19.999Z,19.8
2023-09-24T03:15:14.462Z,19.7
2023-09-24T03:20:20.665Z,19.7
2023-09-24T03:25:16.770Z,19.7
2023-09-24T03:30:15.981Z,19.7
2023-09-24T03:35:16.518Z,19.7
2023-09-24T03:40:14.286Z,19.7
2023-09-24T03:45:18.774Z,19.7
2023-09-24T03:50:19.670Z,19.7
2023-09-24T03:55:18.727Z,19.6
2023-09-24T04:00:17.217Z,19.6
2023-09-24T04:05:14.358Z,19.6
2023-09-24T04:10:14.538Z,19.6
2023-09-24T04:15:22.996Z,19.6
2023-09-24T04:20:18.024Z,19.6
2023-09-24T04:25:19.480Z,19.5
2023-09-24T04:30:14.757Z,19.5
2023-09-24T04:35:22.152Z,19.5
2023-09-24T04:40:18.577Z,19.5
2023-09-24T04:45:18.812Z,19.5
2023-09-24T04:50:20.681Z,19.5
2023-09-24T04:55:14.579Z,19.4
2023-09-24T05:00:17.848Z,19.4
2023-09-24T05:05:16.815Z,19.4
2023-09-24T05:10:18.489Z,19.4
2023-09-24T05:15:16.951Z,19.4
2023-09-24T05:20:24.428Z,19.3
2023-09-24T05:25:14.320Z,19.4
2023-09-24T05:30:19.118Z,19.4
2023-09-24T05:35:22.130Z,19.3
2023-09-24T05:40:20.187Z,19.3
2023-09-24T05:45:14.422Z,19.3
2023-09-24T05:50:16.341Z,19.3
2023-09-24T05:55:20.883Z,19.3
2023-09-24T06:00:24.241Z,19.3
2023-09-24T06:05:17.792Z,19.2
2023-09-24T06:10:14.169Z,19.2
2023-09-24T06:15:14.513Z,19.2
2023-09-24T06:20:16.724Z,19.2
2023-09-24T06:25:14.797Z,19.2
2023-09-24T06:30:18.287Z,19.3
2023-09-24T06:35:16.164Z,19.3
2023-09-24T06:40:14.319Z,19.2
2023-09-24T06:45:14.594Z,19.1
2023-09-24T06:50:18.427Z,19
2023-09-24T06:55:20.356Z,19.1
2023-09-24T07:00:20.684Z,19.1
2023-09-24T07:05:18.776Z,19.2
2023-09-24T07:10:13.944Z,19.2
2023-09-24T07:15:20.452Z,19.2
2023-09-24T07:20:20.730Z,19.2
2023-09-24T07:25:21.639Z,19.2
2023-09-24T07:30:15.170Z,19.2
2023-09-24T07:35:16.694Z,19.2
2023-09-24T07:40:15.674Z,19.2
2023-09-24T07:45:15.071Z,19.2
2023-09-24T07:50:16.381Z,19.2
2023-09-24T07:55:14.249Z,19.2
2023-09-24T08:00:19.103Z,19.2
2023-09-24T08:05:14.797Z,19.2
2023-09-24T08:10:14.135Z,19.2
2023-09-24T08:15:21.028Z,19.2
2023-09-24T08:20:16.223Z,19.2
2023-09-24T08:25:16.059Z,19.2
2023-09-24T08:30:14.552Z,19.2
2023-09-24T08:35:15.385Z,19.2
2023-09-24T08:40:16.419Z,19.2
2023-09-24T08:45:15.305Z,19.2
2023-09-24T08:50:17.828Z,19.2
2023-09-24T08:55:13.845Z,19.3
2023-09-24T09:00:14.290Z,19.3
2023-09-24T09:05:20.555Z,19.3
2023-09-24T09:10:19.327Z,19.3
2023-09-24T09:15:16.719Z,19.3
2023-09-24T09:20:17.938Z,19.3
2023-09-24T09:25:16.010Z,19.4
2023-09-24T09:30:16.989Z,19.3
2023-09-24T09:35:14.186Z,19.3
2023-09-24T09:40:17.187Z,19.3
2023-09-24T09:45:16.935Z,19.3
2023-09-24T09:50:14.304Z,19.3
2023-09-24T09:55:18.525Z,19.3
2023-09-24T10:00:17.504Z,19.4
2023-09-24T10:05:14.450Z,19.4
2023-09-24T10:10:14.697Z,19.3
2023-09-24T10:15:20.146Z,19.3
2023-09-24T10:20:22.909Z,19.3
2023-09-24T10:25:13.838Z,19.4
2023-09-24T10:30:17.008Z,19.4
2023-09-24T10:35:16.591Z,19.4
2023-09-24T10:40:16.685Z,19.4
2023-09-24T10:45:21.210Z,19.4
2023-09-24T10:50:18.425Z,19.4
2023-09-24T10:55:16.262Z,19.4
2023-09-24T11:00:19.412Z,19.4
2023-09-24T11:05:16.175Z,19.5
2023-09-24T11:10:16.216Z,19.5
2023-09-24T11:20:17.900Z,19.5
2023-09-24T11:25:22.622Z,19.5
2023-09-24T11:30:15.189Z,19.5
2023-09-24T11:35:26.273Z,19.5
2023-09-24T11:40:16.342Z,19.5
2023-09-24T11:45:16.841Z,19.6
2023-09-24T11:50:16.256Z,19.6
2023-09-24T11:55:22.548Z,19.6
2023-09-24T12:00:19.283Z,19.6
2023-09-24T12:05:33.710Z,19.6
2023-09-24T12:10:13.794Z,19.6
2023-09-24T12:15:16.122Z,19.7
2023-09-24T12:20:14.191Z,19.8
2023-09-24T12:25:20.244Z,19.9
2023-09-24T12:30:14.442Z,19.8
2023-09-24T12:35:18.737Z,19.8
2023-09-24T12:40:17.687Z,19.8
2023-09-24T12:45:21.428Z,19.8
2023-09-24T12:50:14.600Z,19.9
2023-09-24T12:55:17.968Z,19.9
2023-09-24T13:00:14.558Z,19.9
2023-09-24T13:05:20.487Z,19.9
2023-09-24T13:10:14.638Z,20
2023-09-24T13:15:16.273Z,20
2023-09-24T13:20:15.348Z,20
2023-09-24T13:25:15.426Z,20
2023-09-24T13:30:15.177Z,20
2023-09-24T13:35:18.760Z,20
2023-09-24T13:40:26.968Z,20.1
2023-09-24T13:45:17.183Z,20
2023-09-24T13:50:20.513Z,20
2023-09-24T13:55:16.676Z,20.1
2023-09-24T14:00:18.834Z,20.1
2023-09-24T14:05:18.440Z,20
2023-09-24T14:10:20.688Z,20.1
2023-09-24T14:15:17.455Z,20.1
2023-09-24T14:20:18.692Z,20.1
2023-09-24T14:25:19.076Z,20.1
2023-09-24T14:30:18.473Z,20.1
2023-09-24T14:35:18.725Z,20.1
2023-09-24T14:40:15.120Z,20.1
2023-09-24T14:45:14.828Z,20.1
2023-09-24T14:50:18.376Z,20.1
2023-09-24T14:55:18.217Z,20.1
2023-09-24T15:00:16.757Z,20.2
2023-09-24T15:05:24.474Z,20.2
2023-09-24T15:10:14.880Z,20.2
2023-09-24T15:15:22.141Z,20.2
2023-09-24T15:20:16.430Z,20.2
2023-09-24T15:25:20.415Z,20.2
2023-09-24T15:30:25.357Z,20.2
2023-09-24T15:35:18.542Z,20.2
2023-09-24T15:40:20.675Z,20.2
2023-09-24T15:45:16.812Z,20.2
2023-09-24T15:50:15.976Z,20.3
2023-09-24T15:55:18.030Z,20.3
2023-09-24T16:00:18.513Z,20.2
2023-09-24T16:05:20.835Z,20.3
2023-09-24T16:10:19.754Z,20.3
2023-09-24T16:15:14.392Z,20.3
2023-09-24T16:20:14.680Z,20.3
2023-09-24T16:25:19.102Z,20.3
2023-09-24T16:30:14.319Z,20.3
2023-09-24T16:35:16.756Z,20.3
2023-09-24T16:40:19.710Z,20.3
2023-09-24T16:45:16.200Z,20.3
2023-09-24T16:50:18.514Z,20.2
2023-09-24T16:55:16.359Z,20.2
2023-09-24T17:00:14.642Z,20.2
2023-09-24T17:05:13.881Z,20.2
2023-09-24T17:10:17.193Z,20.2
2023-09-24T17:15:20.612Z,20.2
2023-09-24T17:20:19.633Z,20.2
2023-09-24T17:25:17.071Z,20.2
2023-09-24T17:30:16.560Z,20.2
2023-09-24T17:35:14.536Z,20.1
2023-09-24T17:40:16.883Z,20.1
2023-09-24T17:45:16.161Z,20.1
2023-09-24T17:50:20.262Z,20.1
2023-09-24T17:55:20.381Z,20.1
2023-09-24T18:00:22.971Z,20.1
2023-09-24T18:05:17.939Z,20
2023-09-24T18:10:20.284Z,20
2023-09-24T18:15:23.689Z,20
2023-09-24T18:20:15.696Z,20
2023-09-24T18:25:13.552Z,20
2023-09-24T18:30:16.944Z,20
2023-09-24T18:35:17.942Z,20
2023-09-24T18:40:14.943Z,20
2023-09-24T18:45:14.387Z,20
2023-09-24T18:50:18.567Z,19.9
2023-09-24T18:55:18.609Z,19.9
2023-09-24T19:00:15.445Z,19.9
2023-09-24T19:05:13.718Z,19.9
2023-09-24T19:10:14.805Z,19.9
2023-09-24T19:15:22.612Z,19.9
2023-09-24T19:20:15.625Z,19.9
2023-09-24T19:25:20.876Z,19.9
2023-09-24T19:30:14.110Z,19.9
2023-09-24T19:35:18.405Z,19.9
2023-09-24T19:40:14.749Z,19.9
2023-09-24T19:45:16.252Z,19.8
2023-09-24T19:50:14.686Z,19.8
2023-09-24T19:55:14.901Z,19.8
2023-09-24T20:00:14.063Z,19.8
2023-09-24T20:05:18.576Z,19.8
2023-09-24T20:10:16.845Z,19.8
2023-09-24T20:15:14.250Z,19.8
2023-09-24T20:20:14.474Z,19.8
2023-09-24T20:25:14.787Z,19.8
2023-09-24T20:30:16.099Z,19.8
2023-09-24T20:35:18.660Z,19.7
2023-09-24T20:40:18.745Z,19.7
2023-09-24T20:45:15.829Z,19.7
2023-09-24T20:50:19.288Z,19.7
2023-09-24T20:55:18.673Z,19.7
2023-09-24T21:00:17.019Z,19.7
2023-09-24T21:05:16.978Z,19.7
2023-09-24T21:10:18.056Z,19.7
2023-09-24T21:15:16.632Z,19.6
2023-09-24T21:20:13.826Z,19.6
2023-09-24T21:25:17.888Z,19.6
2023-09-24T21:30:18.198Z,19.6
2023-09-24T21:35:16.360Z,19.6
2023-09-24T21:40:14.401Z,19.6
2023-09-24T21:45:20.544Z,19.6
2023-09-24T21:50:15.650Z,19.6
2023-09-24T21:55:16.698Z,19.6
2023-09-24T22:00:14.266Z,19.5
2023-09-24T22:05:21.360Z,19.5
2023-09-24T22:10:21.897Z,19.5
2023-09-24T22:15:14.400Z,19.5
2023-09-24T22:20:18.523Z,19.5
2023-09-24T22:25:18.367Z,19.5
2023-09-24T22:30:18.639Z,19.5
2023-09-24T22:35:19.965Z,19.5
2023-09-24T22:40:13.807Z,19.5
2023-09-24T22:45:17.926Z,19.4
2023-09-24T22:50:13.902Z,19.4
2023-09-24T22:55:19.730Z,19.4
2023-09-24T23:00:22.140Z,19.4
2023-09-24T23:05:20.388Z,19.4
2023-09-24T23:10:22.581Z,19.4
2023-09-24T23:15:13.972Z,19.3
2023-09-24T23:20:20.112Z,19.3
2023-09-24T23:25:17.984Z,19.3
2023-09-24T23:30:14.343Z,19.3
2023-09-24T23:35:26.572Z,19.3
2023-09-24T23:40:20.530Z,19.3
2023-09-24T23:45:17.049Z,19.3
2023-09-24T23:50:16.168Z,19.2
2023-09-24T23:55:16.333Z,19.2
